»·PEaware :: N53262 KBFL-KBUR

N53262 :: KBFL-KBUR

FLIGHT INFORMATION

Flight Status: Arrived
Operator: Privately registered:
United States
More flights under this callsign
Pilot: Allen F. (27411)
Aircraft: CESSNA 182 SKYLANE
(C182)
More flights by this aircraft type
Origin: KBFL Meadows
United States
Destination: KBUR Bob Hope-Burbank
United States
More flights between these airports :: More routes between these airports
Route: MEADO5 LHS LYNXX8
File this flight plan on PilotEdge
Remarks: travelling, loss of situational awareness on ipad & maybe other issues. may end up sq 7600 & discon . thank you!
Altitude:
(Current/Filed)
9,000ft
Speed:
(Current/Filed)
145kts
Departed: 28-Sep-22 11:30 AM
Arrived: 28-Sep-22 12:12 PM
Distance/Time
Traveled:
81nm/0:42
Distance/Time
To Go:
Arrived

Flight Plot

Page will automatically refresh every two minutes.

Flight plan parsing failed; only flown route is shown


Map Options




Map Legend


Flown Route
Filed Route
Departure Airport
Arrival Airport
Navaid (VOR, NDB)
Fix

Horizontal Profiles

Position Reports

Time Latitude Longitude Heading Altitude Ground
Speed
28-Sep-22 11:15 35.429657 -119.046615 136 497ft 0kts
28-Sep-22 11:16 35.429657 -119.046615 136 497ft 0kts
28-Sep-22 11:17 35.429657 -119.046615 136 497ft 0kts
28-Sep-22 11:18 35.429657 -119.046615 136 497ft 0kts
28-Sep-22 11:19 35.429657 -119.046615 136 497ft 0kts
28-Sep-22 11:20 35.429657 -119.046615 136 497ft 0kts
28-Sep-22 11:21 35.429657 -119.046615 136 497ft 0kts
28-Sep-22 11:22 35.427796 -119.046684 132 488ft 14kts
28-Sep-22 11:23 35.425954 -119.044920 212 482ft 0kts
28-Sep-22 11:24 35.425955 -119.044920 212 482ft 0kts
28-Sep-22 11:25 35.425955 -119.044920 212 482ft 0kts
28-Sep-22 11:26 35.425955 -119.044920 212 482ft 0kts
28-Sep-22 11:27 35.425955 -119.044920 212 482ft 0kts
28-Sep-22 11:28 35.425955 -119.044920 212 482ft 0kts
28-Sep-22 11:29 35.429093 -119.050290 317 548ft 78kts
28-Sep-22 11:30 35.452038 -119.076140 316 1362ft 126kts
28-Sep-22 11:31 35.476328 -119.106514 313 2450ft 122kts
28-Sep-22 11:32 35.499621 -119.133547 317 3707ft 118kts
28-Sep-22 11:33 35.497296 -119.161051 178 4751ft 131kts
28-Sep-22 11:34 35.466300 -119.133707 142 5681ft 134kts
28-Sep-22 11:35 35.437043 -119.102141 140 6536ft 144kts
28-Sep-22 11:36 35.407700 -119.071715 137 7583ft 141kts
28-Sep-22 11:37 35.381137 -119.038764 145 8588ft 143kts
28-Sep-22 11:38 35.342354 -119.017825 162 8832ft 169kts
28-Sep-22 11:39 35.299578 -118.994520 151 9074ft 166kts
28-Sep-22 11:40 35.260044 -118.962228 152 8970ft 170kts
28-Sep-22 11:41 35.218946 -118.935438 153 9006ft 166kts
28-Sep-22 11:42 35.178126 -118.908100 153 9012ft 167kts
28-Sep-22 11:43 35.137516 -118.880795 153 9039ft 167kts
28-Sep-22 11:44 35.096774 -118.853415 153 9075ft 167kts
28-Sep-22 11:45 35.056049 -118.826074 153 9121ft 167kts
28-Sep-22 11:46 35.015210 -118.798694 153 9157ft 168kts
28-Sep-22 11:47 34.974214 -118.771243 152 9159ft 167kts
28-Sep-22 11:48 34.933710 -118.743588 151 9159ft 167kts
28-Sep-22 11:49 34.892899 -118.716708 152 9159ft 166kts
28-Sep-22 11:50 34.852451 -118.689855 152 9153ft 166kts
28-Sep-22 11:51 34.811323 -118.662494 149 9080ft 167kts
28-Sep-22 11:52 34.770573 -118.635389 151 9056ft 167kts
28-Sep-22 11:54 34.729673 -118.608321 149 9026ft 167kts
28-Sep-22 11:55 34.688836 -118.581323 159 8988ft 167kts
28-Sep-22 11:56 34.641850 -118.581742 182 8788ft 176kts
28-Sep-22 11:57 34.590789 -118.586776 183 7874ft 189kts
28-Sep-22 11:58 34.541513 -118.591988 183 7668ft 167kts
28-Sep-22 11:59 34.496324 -118.589129 162 7669ft 162kts
28-Sep-22 12:00 34.452738 -118.579986 197 7668ft 163kts
28-Sep-22 12:01 34.409332 -118.603216 202 7150ft 179kts
28-Sep-22 12:02 34.363422 -118.628225 203 6398ft 183kts
28-Sep-22 12:03 34.319356 -118.652214 202 6200ft 164kts
28-Sep-22 12:04 34.278622 -118.674380 202 6215ft 160kts
28-Sep-22 12:05 34.235660 -118.687488 144 5717ft 175kts
28-Sep-22 12:06 34.221277 -118.630854 102 4954ft 180kts
28-Sep-22 12:07 34.211313 -118.571937 102 4222ft 178kts
28-Sep-22 12:08 34.199687 -118.515510 97 3483ft 149kts
28-Sep-22 12:09 34.199260 -118.470493 90 2517ft 138kts
28-Sep-22 12:10 34.198939 -118.427032 87 1703ft 130kts
28-Sep-22 12:11 34.197901 -118.388944 94 1149ft 92kts
28-Sep-22 12:12 34.197780 -118.366020 87 725ft 34kts
28-Sep-22 12:13 34.198583 -118.364572 23 725ft 3kts
28-Sep-22 12:14 34.198593 -118.364567 23 725ft 0kts
28-Sep-22 12:15 34.200338 -118.364359 159 729ft 0kts
28-Sep-22 12:15 34.200335 -118.364358 164 729ft 0kts
28-Sep-22 12:17 34.200335 -118.364358 164 729ft 0kts
28-Sep-22 12:18 34.200335 -118.364358 164 729ft 0kts

Navigation Log

Ident Type
Flight plan parsing failed, navigation log unavailable